Time;durP1;ratioP1;P1;durP2;ratioP2;P2;SDS_P1;SDS_P2;PMS_P1;PMS_P2;Temp;Humidity;BMP_temperature;BMP_pressure;BME280_temperature;BME280_humidity;BME280_pressure;Samples;Min_cycle;Max_cycle;Signal;HPM_P1;HPM_P2
2023/12/06 00:01:18;;;;;;;4.80;4.50;;;;;;;;;;6020379;29;20620;-68
2023/12/06 00:04:22;;;;;;;4.93;4.27;;;;;;;;;;6021327;29;20374;-68
2023/12/06 00:07:28;;;;;;;4.53;4.17;;;;;;;;;;6002096;29;20311;-68
2023/12/06 00:10:32;;;;;;;5.10;4.57;;;;;;;;;;6008571;29;20307;-68
2023/12/06 00:13:36;;;;;;;6.30;4.20;;;;;;;;;;6024763;29;20312;-68
2023/12/06 00:16:40;;;;;;;5.53;4.03;;;;;;;;;;6024884;29;20364;-68
2023/12/06 00:19:43;;;;;;;4.63;4.20;;;;;;;;;;6024081;29;20616;-68
2023/12/06 00:22:49;;;;;;;4.70;4.30;;;;;;;;;;6025016;29;20300;-67
2023/12/06 00:25:53;;;;;;;5.80;4.20;;;;;;;;;;6024008;29;20471;-68
2023/12/06 00:28:57;;;;;;;4.23;3.60;;;;;;;;;;6023664;29;20307;-67
2023/12/06 00:32:00;;;;;;;4.33;3.90;;;;;;;;;;6024779;29;20300;-67
2023/12/06 00:35:05;;;;;;;3.70;3.50;;;;;;;;;;6023836;29;20520;-67
2023/12/06 00:38:11;;;;;;;4.20;3.73;;;;;;;;;;6029237;29;20314;-67
2023/12/06 00:41:15;;;;;;;4.40;4.00;;;;;;;;;;6024081;29;20306;-67
2023/12/06 00:44:21;;;;;;;6.03;3.80;;;;;;;;;;6024225;29;20302;-67
2023/12/06 00:47:25;;;;;;;4.47;4.13;;;;;;;;;;6024269;29;20309;-67
2023/12/06 00:50:29;;;;;;;4.83;4.23;;;;;;;;;;6023999;29;20302;-67
2023/12/06 00:53:35;;;;;;;5.07;4.00;;;;;;;;;;6023314;29;20296;-67
2023/12/06 00:56:38;;;;;;;4.10;3.80;;;;;;;;;;6023094;29;20351;-67
2023/12/06 00:59:42;;;;;;;4.03;3.80;;;;;;;;;;6022552;29;20330;-67
2023/12/06 01:02:46;;;;;;;5.10;4.30;;;;;;;;;;6023447;29;20299;-68
2023/12/06 01:05:50;;;;;;;5.30;3.80;;;;;;;;;;6023180;29;20306;-68
2023/12/06 01:08:55;;;;;;;4.70;4.20;;;;;;;;;;6023574;29;20327;-67
2023/12/06 01:11:59;;;;;;;5.00;4.50;;;;;;;;;;6011362;29;20331;-67
2023/12/06 01:15:04;;;;;;;4.57;4.07;;;;;;;;;;5999962;29;20308;-68
2023/12/06 01:18:08;;;;;;;5.37;3.60;;;;;;;;;;5999846;29;20299;-67
2023/12/06 01:21:12;;;;;;;4.43;4.00;;;;;;;;;;6000923;29;20483;-67
2023/12/06 01:24:17;;;;;;;8.87;3.73;;;;;;;;;;5990404;29;20305;-67
2023/12/06 01:27:21;;;;;;;6.70;4.00;;;;;;;;;;6005654;29;20301;-67
2023/12/06 01:30:25;;;;;;;4.80;4.27;;;;;;;;;;6014634;29;20370;-67
2023/12/06 01:33:29;;;;;;;6.00;4.07;;;;;;;;;;6022224;29;20295;-68
2023/12/06 01:36:34;;;;;;;3.70;3.40;;;;;;;;;;6022558;29;20298;-68
2023/12/06 01:39:39;;;;;;;6.03;3.63;;;;;;;;;;6022464;29;20316;-67
2023/12/06 01:42:46;;;;;;;5.83;3.90;;;;;;;;;;6021291;29;20300;-67
2023/12/06 01:45:49;;;;;;;4.23;3.60;;;;;;;;;;6022285;29;20303;-67
2023/12/06 01:48:54;;;;;;;3.83;3.53;;;;;;;;;;6022409;29;20304;-67
2023/12/06 01:51:58;;;;;;;3.77;3.50;;;;;;;;;;6022395;29;20308;-67
2023/12/06 01:55:05;;;;;;;4.60;3.80;;;;;;;;;;6022407;29;20305;-67
2023/12/06 01:58:09;;;;;;;3.37;3.07;;;;;;;;;;5999832;29;20304;-67
2023/12/06 02:01:13;;;;;;;3.33;3.13;;;;;;;;;;5999906;29;20299;-67
2023/12/06 02:04:18;;;;;;;2.90;2.80;;;;;;;;;;5999468;29;20366;-67
2023/12/06 02:07:22;;;;;;;3.57;3.27;;;;;;;;;;5999645;29;20309;-68
2023/12/06 02:10:27;;;;;;;2.90;2.70;;;;;;;;;;6004627;29;20296;-67
2023/12/06 02:13:31;;;;;;;3.43;3.10;;;;;;;;;;6021948;29;20299;-67
2023/12/06 02:16:35;;;;;;;3.90;3.43;;;;;;;;;;6022458;29;20310;-68
2023/12/06 02:19:40;;;;;;;5.07;3.60;;;;;;;;;;6021917;29;20299;-68
2023/12/06 02:22:44;;;;;;;3.90;3.50;;;;;;;;;;6021695;29;20304;-68
2023/12/06 02:25:49;;;;;;;3.30;3.20;;;;;;;;;;6021494;29;20295;-68
2023/12/06 02:28:54;;;;;;;3.70;3.37;;;;;;;;;;6020975;29;20332;-67
2023/12/06 02:31:58;;;;;;;6.17;3.57;;;;;;;;;;6021881;29;20303;-67
2023/12/06 02:35:04;;;;;;;3.87;3.67;;;;;;;;;;6020512;29;20458;-67
2023/12/06 02:38:09;;;;;;;3.30;3.10;;;;;;;;;;6021260;29;20299;-67
2023/12/06 02:41:17;;;;;;;3.50;3.27;;;;;;;;;;6021780;29;20300;-67
2023/12/06 02:44:21;;;;;;;4.80;4.30;;;;;;;;;;6021715;29;20300;-67
2023/12/06 02:47:25;;;;;;;5.03;3.60;;;;;;;;;;6021261;29;20299;-67
2023/12/06 02:50:29;;;;;;;3.70;3.40;;;;;;;;;;6021681;29;20299;-67
2023/12/06 02:53:33;;;;;;;6.90;3.77;;;;;;;;;;5998773;29;20299;-67
2023/12/06 02:56:38;;;;;;;3.77;3.57;;;;;;;;;;5998953;29;20303;-67
2023/12/06 02:59:42;;;;;;;4.23;3.80;;;;;;;;;;5998237;29;20295;-68
2023/12/06 03:02:46;;;;;;;3.57;3.27;;;;;;;;;;5998881;29;20304;-67
2023/12/06 03:05:50;;;;;;;5.30;3.93;;;;;;;;;;5998530;29;20315;-67
2023/12/06 03:08:54;;;;;;;3.70;3.50;;;;;;;;;;5998204;29;20317;-67
2023/12/06 03:11:59;;;;;;;4.60;4.20;;;;;;;;;;6015937;29;20298;-68
2023/12/06 03:15:03;;;;;;;4.07;3.67;;;;;;;;;;6019271;29;20540;-67
2023/12/06 03:18:07;;;;;;;4.27;3.70;;;;;;;;;;6002074;29;20299;-67
2023/12/06 03:21:11;;;;;;;4.67;4.27;;;;;;;;;;5998359;29;20299;-67
2023/12/06 03:24:15;;;;;;;4.13;3.83;;;;;;;;;;5997926;29;20301;-67
2023/12/06 03:27:21;;;;;;;4.20;3.80;;;;;;;;;;5998399;29;20323;-67
2023/12/06 03:30:25;;;;;;;3.90;3.60;;;;;;;;;;6012443;29;20303;-67
2023/12/06 03:33:39;;;;;;;4.13;3.83;;;;;;;;;;6018936;29;20290;-67
2023/12/06 03:36:43;;;;;;;5.37;4.13;;;;;;;;;;6020377;29;20295;-67
2023/12/06 03:39:47;;;;;;;4.37;3.97;;;;;;;;;;6019261;29;20301;-67
2023/12/06 03:42:53;;;;;;;4.20;3.90;;;;;;;;;;6019111;29;20302;-67
2023/12/06 03:45:57;;;;;;;4.63;4.30;;;;;;;;;;6019770;29;20626;-68
2023/12/06 03:49:01;;;;;;;5.47;4.13;;;;;;;;;;6034382;29;20298;-67
2023/12/06 03:52:07;;;;;;;4.07;3.77;;;;;;;;;;6020074;29;20307;-67
2023/12/06 03:55:11;;;;;;;4.27;3.97;;;;;;;;;;6019834;29;20314;-68
2023/12/06 03:58:17;;;;;;;5.63;4.60;;;;;;;;;;6019731;29;20607;-67
2023/12/06 04:01:21;;;;;;;6.37;4.10;;;;;;;;;;6019743;29;20295;-68
2023/12/06 04:04:25;;;;;;;5.93;4.17;;;;;;;;;;6004508;29;20299;-67
2023/12/06 04:07:29;;;;;;;3.93;3.70;;;;;;;;;;6011572;29;20337;-69
2023/12/06 04:10:33;;;;;;;4.27;3.97;;;;;;;;;;6014427;29;20303;-67
2023/12/06 04:13:38;;;;;;;5.33;4.30;;;;;;;;;;5996708;29;20306;-67
2023/12/06 04:16:43;;;;;;;4.20;3.90;;;;;;;;;;5997789;29;20299;-67
2023/12/06 04:19:46;;;;;;;6.43;4.30;;;;;;;;;;6008693;29;20493;-67
2023/12/06 04:22:51;;;;;;;4.47;4.00;;;;;;;;;;6019020;29;20301;-67
2023/12/06 04:25:54;;;;;;;4.23;3.93;;;;;;;;;;6026320;29;20579;-68
2023/12/06 04:29:00;;;;;;;4.17;3.97;;;;;;;;;;6019059;29;20373;-68
2023/12/06 04:32:04;;;;;;;4.03;3.77;;;;;;;;;;6019583;29;20290;-68
2023/12/06 04:35:10;;;;;;;4.40;4.00;;;;;;;;;;6019323;29;20306;-68
2023/12/06 04:38:14;;;;;;;4.40;4.07;;;;;;;;;;5997665;29;20306;-68
2023/12/06 04:41:18;;;;;;;4.87;4.03;;;;;;;;;;5997161;29;20559;-68
2023/12/06 04:44:23;;;;;;;3.90;3.60;;;;;;;;;;5996568;29;20315;-68
2023/12/06 04:47:27;;;;;;;4.00;3.70;;;;;;;;;;5997007;29;20307;-67
2023/12/06 04:50:31;;;;;;;4.73;3.67;;;;;;;;;;5997949;29;20500;-68
2023/12/06 04:53:35;;;;;;;4.43;3.57;;;;;;;;;;6001396;29;20301;-68
2023/12/06 04:56:39;;;;;;;5.83;3.90;;;;;;;;;;6000849;29;20302;-68
2023/12/06 04:59:45;;;;;;;3.67;3.47;;;;;;;;;;5999611;29;20458;-68
2023/12/06 05:02:49;;;;;;;5.03;3.80;;;;;;;;;;6000777;29;20533;-68
2023/12/06 05:05:53;;;;;;;3.60;3.40;;;;;;;;;;6001056;29;20452;-68
2023/12/06 05:08:57;;;;;;;4.03;3.73;;;;;;;;;;5998488;29;20310;-68
2023/12/06 05:12:04;;;;;;;5.83;3.80;;;;;;;;;;6026650;29;20294;-68
2023/12/06 05:15:11;;;;;;;4.57;3.87;;;;;;;;;;6023382;29;20455;-68
2023/12/06 05:18:15;;;;;;;4.37;3.77;;;;;;;;;;6022845;29;20615;-68
2023/12/06 05:21:19;;;;;;;4.27;3.80;;;;;;;;;;6022967;29;20380;-68
2023/12/06 05:24:23;;;;;;;4.50;4.20;;;;;;;;;;6022480;29;20298;-68
2023/12/06 05:27:26;;;;;;;5.70;3.97;;;;;;;;;;6023118;29;20301;-68
2023/12/06 05:30:33;;;;;;;4.90;4.10;;;;;;;;;;6022538;29;20293;-68
2023/12/06 05:33:37;;;;;;;4.10;3.80;;;;;;;;;;6021838;29;20294;-68
2023/12/06 05:36:41;;;;;;;4.67;3.70;;;;;;;;;;6022775;29;20309;-68
2023/12/06 05:39:45;;;;;;;5.13;3.43;;;;;;;;;;6023172;29;20297;-68
2023/12/06 05:42:49;;;;;;;3.73;3.53;;;;;;;;;;6022310;29;20298;-68
2023/12/06 05:45:55;;;;;;;4.17;3.20;;;;;;;;;;6022900;29;20478;-67
2023/12/06 05:48:59;;;;;;;3.30;3.10;;;;;;;;;;6022411;29;20309;-68
2023/12/06 05:52:03;;;;;;;5.40;3.40;;;;;;;;;;6022563;29;20306;-68
2023/12/06 05:55:08;;;;;;;3.43;3.13;;;;;;;;;;6022402;29;20369;-68
2023/12/06 05:58:12;;;;;;;3.23;3.10;;;;;;;;;;6012590;29;20322;-68
2023/12/06 06:01:17;;;;;;;3.33;3.07;;;;;;;;;;6022427;29;20310;-68
2023/12/06 06:04:21;;;;;;;3.73;3.40;;;;;;;;;;6021685;29;20319;-68
2023/12/06 06:07:26;;;;;;;3.10;2.83;;;;;;;;;;6021917;29;20302;-68
2023/12/06 06:10:30;;;;;;;3.10;2.80;;;;;;;;;;6013943;29;20374;-68
2023/12/06 06:13:34;;;;;;;2.93;2.73;;;;;;;;;;5997933;29;20564;-68
2023/12/06 06:16:39;;;;;;;3.53;3.20;;;;;;;;;;5999379;29;20343;-68
2023/12/06 06:19:43;;;;;;;3.03;2.73;;;;;;;;;;5998893;29;20314;-68
2023/12/06 06:22:47;;;;;;;4.30;3.23;;;;;;;;;;5998947;29;20302;-67
2023/12/06 06:25:52;;;;;;;5.03;3.20;;;;;;;;;;5999447;29;20301;-67
2023/12/06 06:28:56;;;;;;;3.67;3.37;;;;;;;;;;6002251;29;20317;-67
2023/12/06 06:32:01;;;;;;;3.43;3.17;;;;;;;;;;6021975;29;20593;-68
2023/12/06 06:35:07;;;;;;;3.43;2.73;;;;;;;;;;5998644;29;20310;-68
2023/12/06 06:38:11;;;;;;;2.80;2.60;;;;;;;;;;5998396;29;20309;-67
2023/12/06 06:41:16;;;;;;;3.00;2.70;;;;;;;;;;5999019;29;20344;-68
2023/12/06 06:44:20;;;;;;;3.53;3.23;;;;;;;;;;5998304;29;20306;-67
2023/12/06 06:47:27;;;;;;;2.97;2.77;;;;;;;;;;6035224;29;20308;-66
2023/12/06 06:50:31;;;;;;;2.83;2.73;;;;;;;;;;5998703;29;20311;-67
2023/12/06 06:53:35;;;;;;;3.07;2.80;;;;;;;;;;6017393;29;20450;-67
2023/12/06 06:56:39;;;;;;;4.50;2.80;;;;;;;;;;6020819;29;20296;-70
2023/12/06 06:59:43;;;;;;;2.60;2.50;;;;;;;;;;6020747;29;20320;-66
2023/12/06 07:02:48;;;;;;;3.17;2.93;;;;;;;;;;6020849;29;20293;-66
2023/12/06 07:05:52;;;;;;;4.00;2.63;;;;;;;;;;6020449;29;20316;-66
2023/12/06 07:08:56;;;;;;;2.97;2.70;;;;;;;;;;6020080;29;20318;-66
2023/12/06 07:12:00;;;;;;;2.97;2.87;;;;;;;;;;6001853;29;20305;-66
2023/12/06 07:15:04;;;;;;;2.97;2.87;;;;;;;;;;5998192;29;20321;-66
2023/12/06 07:18:10;;;;;;;2.03;1.93;;;;;;;;;;5997931;29;20309;-66
2023/12/06 07:21:14;;;;;;;2.97;2.87;;;;;;;;;;5998195;29;20318;-67
2023/12/06 07:24:20;;;;;;;2.43;2.33;;;;;;;;;;5998325;29;20292;-68
2023/12/06 07:27:24;;;;;;;3.60;2.40;;;;;;;;;;5998316;29;20599;-68
2023/12/06 07:30:28;;;;;;;2.17;2.07;;;;;;;;;;5995970;29;20298;-67
2023/12/06 07:33:35;;;;;;;2.73;2.53;;;;;;;;;;5997997;29;20305;-68
2023/12/06 07:36:39;;;;;;;3.43;2.43;;;;;;;;;;5998023;29;20301;-66
2023/12/06 07:39:43;;;;;;;2.60;2.30;;;;;;;;;;5998116;29;20310;-67
2023/12/06 07:42:46;;;;;;;2.13;2.03;;;;;;;;;;5997354;29;20293;-67
2023/12/06 07:45:51;;;;;;;8.43;2.83;;;;;;;;;;5998160;29;20293;-66
2023/12/06 07:48:56;;;;;;;6.20;2.60;;;;;;;;;;5997339;29;20326;-66
2023/12/06 07:52:00;;;;;;;2.90;2.70;;;;;;;;;;6004406;29;20525;-66
2023/12/06 07:55:06;;;;;;;2.80;2.60;;;;;;;;;;6019715;29;20317;-67
2023/12/06 07:58:11;;;;;;;3.63;2.87;;;;;;;;;;6019501;29;20321;-67
2023/12/06 08:01:15;;;;;;;2.60;2.40;;;;;;;;;;6020170;29;20297;-67
2023/12/06 08:04:20;;;;;;;2.77;2.57;;;;;;;;;;6019609;29;20306;-66
2023/12/06 08:07:24;;;;;;;6.17;3.03;;;;;;;;;;6020160;29;20313;-67
2023/12/06 08:10:31;;;;;;;3.27;2.77;;;;;;;;;;6012034;29;20471;-67
2023/12/06 08:13:34;;;;;;;3.20;3.00;;;;;;;;;;5997440;29;20290;-67
2023/12/06 08:16:38;;;;;;;3.50;2.83;;;;;;;;;;5997656;29;20334;-67
2023/12/06 08:19:43;;;;;;;2.80;2.60;;;;;;;;;;5996838;29;20611;-67
2023/12/06 08:22:47;;;;;;;4.27;2.67;;;;;;;;;;5996909;29;20297;-67
2023/12/06 08:25:51;;;;;;;2.50;2.40;;;;;;;;;;5999943;29;20623;-67
2023/12/06 08:28:55;;;;;;;2.77;2.57;;;;;;;;;;6001758;29;20341;-66
2023/12/06 08:31:59;;;;;;;2.80;2.70;;;;;;;;;;6001894;29;20302;-68
2023/12/06 08:35:05;;;;;;;6.93;2.87;;;;;;;;;;6001435;29;20486;-67
2023/12/06 08:38:09;;;;;;;3.33;2.63;;;;;;;;;;6000837;29;20306;-67
2023/12/06 08:41:13;;;;;;;2.60;2.50;;;;;;;;;;6001225;29;20309;-67
2023/12/06 08:44:17;;;;;;;2.97;2.77;;;;;;;;;;6001514;29;20484;-67
2023/12/06 08:47:21;;;;;;;2.90;2.70;;;;;;;;;;6001679;29;20358;-67
2023/12/06 08:50:26;;;;;;;2.73;2.40;;;;;;;;;;6000847;29;20591;-67
2023/12/06 08:53:30;;;;;;;2.97;2.87;;;;;;;;;;6018504;29;20304;-67
2023/12/06 08:56:34;;;;;;;5.50;2.70;;;;;;;;;;6024481;29;20301;-67
2023/12/06 08:59:38;;;;;;;2.60;2.43;;;;;;;;;;6023272;29;20321;-67
2023/12/06 09:02:43;;;;;;;3.57;2.93;;;;;;;;;;6023008;29;20306;-67
2023/12/06 09:05:49;;;;;;;2.87;2.67;;;;;;;;;;6023317;29;20313;-67
2023/12/06 09:08:52;;;;;;;8.57;3.03;;;;;;;;;;6023544;29;20301;-67
2023/12/06 09:11:56;;;;;;;4.17;2.80;;;;;;;;;;6005058;29;20310;-67
2023/12/06 09:15:00;;;;;;;3.00;2.90;;;;;;;;;;6000420;29;20314;-67
2023/12/06 09:18:05;;;;;;;10.10;3.03;;;;;;;;;;5999631;29;20538;-68
2023/12/06 09:21:10;;;;;;;3.07;2.87;;;;;;;;;;6000768;29;20299;-67
2023/12/06 09:24:14;;;;;;;3.10;2.90;;;;;;;;;;6002169;29;20311;-67
2023/12/06 09:27:18;;;;;;;3.30;2.97;;;;;;;;;;6022964;29;20318;-68
2023/12/06 09:30:22;;;;;;;3.27;3.07;;;;;;;;;;6006154;29;20306;-67
2023/12/06 09:33:26;;;;;;;3.30;3.10;;;;;;;;;;5999321;29;20299;-67
2023/12/06 09:36:32;;;;;;;4.63;2.90;;;;;;;;;;5999810;29;20303;-67
2023/12/06 09:39:36;;;;;;;3.80;3.50;;;;;;;;;;6000161;29;20302;-67
2023/12/06 09:42:44;;;;;;;3.83;3.50;;;;;;;;;;5999840;29;20547;-67
2023/12/06 09:45:48;;;;;;;3.40;3.20;;;;;;;;;;6000357;29;20294;-67
2023/12/06 09:48:52;;;;;;;5.20;3.17;;;;;;;;;;5999509;29;20307;-67
2023/12/06 09:52:03;;;;;;;3.83;3.47;;;;;;;;;;6006092;29;20306;-67
2023/12/06 09:55:08;;;;;;;3.30;3.00;;;;;;;;;;6022231;29;20307;-67
2023/12/06 09:58:12;;;;;;;3.37;3.17;;;;;;;;;;6022300;29;20382;-67
2023/12/06 10:01:16;;;;;;;3.80;3.37;;;;;;;;;;6022477;29;20321;-67
2023/12/06 10:04:20;;;;;;;3.20;3.00;;;;;;;;;;6021911;29;20436;-67
2023/12/06 10:07:33;;;;;;;5.47;3.80;;;;;;;;;;6022273;29;20325;-67
2023/12/06 10:10:37;;;;;;;4.10;3.70;;;;;;;;;;6013208;29;20302;-67
2023/12/06 10:13:41;;;;;;;4.43;4.03;;;;;;;;;;5999375;29;20295;-67
2023/12/06 10:16:46;;;;;;;5.93;3.73;;;;;;;;;;5999694;29;20564;-68
2023/12/06 10:19:50;;;;;;;4.87;3.50;;;;;;;;;;5999111;29;20297;-67
2023/12/06 10:22:56;;;;;;;4.00;3.60;;;;;;;;;;5989525;29;20302;-67
2023/12/06 10:26:00;;;;;;;5.07;3.80;;;;;;;;;;5999936;29;20299;-67
2023/12/06 10:29:05;;;;;;;3.80;3.47;;;;;;;;;;5997960;29;20476;-67
2023/12/06 10:32:09;;;;;;;4.43;3.90;;;;;;;;;;6013242;29;20457;-68
2023/12/06 10:35:13;;;;;;;5.33;3.80;;;;;;;;;;5998984;29;20303;-67
2023/12/06 10:38:19;;;;;;;5.27;4.13;;;;;;;;;;5999176;29;20603;-68
2023/12/06 10:41:24;;;;;;;3.63;3.33;;;;;;;;;;5999435;29;20307;-68
2023/12/06 10:44:27;;;;;;;5.17;3.80;;;;;;;;;;5998800;29;20296;-67
2023/12/06 10:47:32;;;;;;;4.03;3.50;;;;;;;;;;6012053;29;20534;-67
2023/12/06 10:50:36;;;;;;;4.50;3.97;;;;;;;;;;5999835;29;20300;-67
2023/12/06 10:53:42;;;;;;;4.03;3.70;;;;;;;;;;6017717;29;20306;-68
2023/12/06 10:56:46;;;;;;;4.00;3.70;;;;;;;;;;6021525;29;20302;-68
2023/12/06 10:59:50;;;;;;;4.00;3.70;;;;;;;;;;6020804;29;20469;-68
2023/12/06 11:02:54;;;;;;;5.03;3.40;;;;;;;;;;6021070;29;20305;-67
2023/12/06 11:06:02;;;;;;;4.63;4.20;;;;;;;;;;6021149;29;20316;-67
2023/12/06 11:09:17;;;;;;;4.90;3.77;;;;;;;;;;6020618;29;20299;-66
2023/12/06 11:12:30;;;;;;;4.40;3.60;;;;;;;;;;5999810;29;20420;-65
2023/12/06 11:15:41;;;;;;;4.90;4.00;;;;;;;;;;5998174;29;20296;-67
2023/12/06 11:18:47;;;;;;;5.27;3.63;;;;;;;;;;5998033;29;20311;-66
2023/12/06 11:21:51;;;;;;;7.43;3.77;;;;;;;;;;5998150;29;20303;-66
2023/12/06 11:24:57;;;;;;;6.60;4.60;;;;;;;;;;6011450;29;20476;-67
2023/12/06 11:28:01;;;;;;;6.17;4.40;;;;;;;;;;5997642;29;20302;-66
2023/12/06 11:31:05;;;;;;;5.77;3.93;;;;;;;;;;5998575;29;20307;-67
2023/12/06 11:34:10;;;;;;;5.37;4.13;;;;;;;;;;6012035;29;20462;-66
2023/12/06 11:37:18;;;;;;;6.17;4.30;;;;;;;;;;5998446;29;20303;-67
2023/12/06 11:40:26;;;;;;;3.73;3.10;;;;;;;;;;5998004;29;20493;-67
2023/12/06 11:43:31;;;;;;;2.70;2.57;;;;;;;;;;5997712;29;20308;-67
2023/12/06 11:46:36;;;;;;;3.10;2.90;;;;;;;;;;5998052;29;20296;-67
2023/12/06 11:49:40;;;;;;;3.07;2.87;;;;;;;;;;5997772;29;20288;-67
2023/12/06 11:52:48;;;;;;;3.40;3.20;;;;;;;;;;6009392;29;20299;-67
2023/12/06 11:55:54;;;;;;;3.17;2.93;;;;;;;;;;6019841;29;20301;-67
2023/12/06 11:59:02;;;;;;;3.57;3.33;;;;;;;;;;6019352;29;20299;-69
2023/12/06 12:02:07;;;;;;;3.27;3.07;;;;;;;;;;6019572;29;20306;-68
2023/12/06 12:05:11;;;;;;;3.77;3.47;;;;;;;;;;6019288;29;20299;-67
2023/12/06 12:08:15;;;;;;;3.40;3.20;;;;;;;;;;6020073;29;20350;-67
2023/12/06 12:11:21;;;;;;;6.17;3.60;;;;;;;;;;6005916;29;20315;-68
2023/12/06 12:14:25;;;;;;;6.00;3.80;;;;;;;;;;5997088;29;20298;-66
2023/12/06 12:17:29;;;;;;;5.57;4.07;;;;;;;;;;5996301;29;20444;-66
2023/12/06 12:20:37;;;;;;;5.17;4.10;;;;;;;;;;5997311;29;20302;-66
2023/12/06 12:23:40;;;;;;;7.20;3.93;;;;;;;;;;5996682;29;20299;-67
2023/12/06 12:26:46;;;;;;;8.30;4.37;;;;;;;;;;5997563;29;20298;-67
2023/12/06 12:29:55;;;;;;;8.60;4.30;;;;;;;;;;5997021;29;20444;-67
2023/12/06 12:32:59;;;;;;;10.67;4.17;;;;;;;;;;5996870;29;20339;-66
2023/12/06 12:36:04;;;;;;;3.93;3.63;;;;;;;;;;5997283;29;20301;-66
2023/12/06 12:39:09;;;;;;;4.33;3.80;;;;;;;;;;5997480;29;20592;-67
2023/12/06 12:42:15;;;;;;;3.80;3.50;;;;;;;;;;5997753;29;20303;-68
2023/12/06 12:45:19;;;;;;;8.47;3.67;;;;;;;;;;5996970;29;20295;-66
2023/12/06 12:48:23;;;;;;;4.20;3.47;;;;;;;;;;5996753;29;20299;-67
2023/12/06 12:51:27;;;;;;;3.63;3.13;;;;;;;;;;5999646;29;20298;-67
2023/12/06 12:54:32;;;;;;;3.90;3.60;;;;;;;;;;6019454;29;20605;-67
2023/12/06 12:57:41;;;;;;;3.53;3.27;;;;;;;;;;5996592;29;20319;-68
2023/12/06 13:00:45;;;;;;;3.40;3.20;;;;;;;;;;5997107;29;20485;-68
2023/12/06 13:03:49;;;;;;;6.67;4.10;;;;;;;;;;5997009;29;20295;-67
2023/12/06 13:06:55;;;;;;;5.00;3.97;;;;;;;;;;5997064;29;20304;-68
2023/12/06 13:09:59;;;;;;;3.50;3.20;;;;;;;;;;6000342;29;20295;-67
2023/12/06 13:13:04;;;;;;;5.57;3.77;;;;;;;;;;6021901;29;20330;-66
2023/12/06 13:16:08;;;;;;;3.70;3.40;;;;;;;;;;6023846;29;20306;-66
2023/12/06 13:19:12;;;;;;;4.17;3.70;;;;;;;;;;6023505;29;20313;-66
2023/12/06 13:22:16;;;;;;;2.90;2.70;;;;;;;;;;6023364;29;20306;-66
2023/12/06 13:25:25;;;;;;;3.37;2.97;;;;;;;;;;6022968;29;20291;-66
2023/12/06 13:28:31;;;;;;;4.20;3.40;;;;;;;;;;6023364;29;20304;-66
2023/12/06 13:31:36;;;;;;;3.50;3.30;;;;;;;;;;6023351;29;20301;-66
2023/12/06 13:34:40;;;;;;;4.17;2.90;;;;;;;;;;6023461;29;20294;-66
2023/12/06 13:37:44;;;;;;;3.93;3.57;;;;;;;;;;6022909;29;20371;-66
2023/12/06 13:40:48;;;;;;;4.23;3.80;;;;;;;;;;6023324;29;20301;-67
2023/12/06 13:43:54;;;;;;;4.37;3.97;;;;;;;;;;6022047;29;20305;-67
2023/12/06 13:46:58;;;;;;;5.57;4.27;;;;;;;;;;6022999;29;20308;-67
2023/12/06 13:50:02;;;;;;;4.90;3.73;;;;;;;;;;6022451;29;20598;-67
2023/12/06 13:53:06;;;;;;;4.63;4.10;;;;;;;;;;6022983;29;20617;-67
2023/12/06 13:56:10;;;;;;;3.77;3.33;;;;;;;;;;6023132;29;20381;-67
2023/12/06 13:59:16;;;;;;;5.17;4.10;;;;;;;;;;6022980;29;20318;-67
2023/12/06 14:02:20;;;;;;;5.67;3.47;;;;;;;;;;6012990;29;20309;-67
2023/12/06 14:05:24;;;;;;;5.97;3.57;;;;;;;;;;6022201;29;20294;-67
2023/12/06 14:08:28;;;;;;;3.53;3.20;;;;;;;;;;6022699;29;20298;-67
2023/12/06 14:11:32;;;;;;;3.80;3.47;;;;;;;;;;6006964;29;20314;-68
2023/12/06 14:14:38;;;;;;;5.90;3.20;;;;;;;;;;5999283;29;20302;-67
2023/12/06 14:17:42;;;;;;;4.93;3.70;;;;;;;;;;5998759;29;20310;-67
2023/12/06 14:20:47;;;;;;;4.13;3.40;;;;;;;;;;5998070;29;20298;-67
2023/12/06 14:23:50;;;;;;;4.03;3.63;;;;;;;;;;5998587;29;20580;-67
2023/12/06 14:26:55;;;;;;;5.17;4.40;;;;;;;;;;5999928;29;20310;-67
2023/12/06 14:30:01;;;;;;;10.10;4.30;;;;;;;;;;5999089;29;20321;-67
2023/12/06 14:33:16;;;;;;;6.50;3.67;;;;;;;;;;5999356;29;20596;-67
2023/12/06 14:36:20;;;;;;;3.93;3.63;;;;;;;;;;5999816;29;20311;-67
2023/12/06 14:39:24;;;;;;;4.37;3.97;;;;;;;;;;5998896;29;20564;-67
2023/12/06 14:42:29;;;;;;;3.47;3.23;;;;;;;;;;5999091;29;20576;-68
2023/12/06 14:45:35;;;;;;;3.77;3.43;;;;;;;;;;5997781;29;20306;-67
2023/12/06 14:48:39;;;;;;;3.73;3.53;;;;;;;;;;5999048;29;20291;-67
2023/12/06 14:51:43;;;;;;;4.33;3.93;;;;;;;;;;6004024;29;20371;-67
2023/12/06 14:54:46;;;;;;;4.83;4.10;;;;;;;;;;6021674;29;20590;-67
2023/12/06 14:57:51;;;;;;;7.87;4.37;;;;;;;;;;6021473;29;20594;-66
2023/12/06 15:00:56;;;;;;;4.23;3.90;;;;;;;;;;6021760;29;20305;-66
2023/12/06 15:04:00;;;;;;;6.07;4.90;;;;;;;;;;6021138;29;20399;-66
2023/12/06 15:07:05;;;;;;;5.03;4.50;;;;;;;;;;6021147;29;20309;-67
2023/12/06 15:10:10;;;;;;;12.67;4.40;;;;;;;;;;6016082;29;20315;-66
2023/12/06 15:13:14;;;;;;;4.97;4.30;;;;;;;;;;5998525;29;20311;-67
2023/12/06 15:16:19;;;;;;;4.50;4.10;;;;;;;;;;5999072;29;20306;-68
2023/12/06 15:19:23;;;;;;;7.73;4.73;;;;;;;;;;5998238;29;20306;-66
2023/12/06 15:22:44;;;;;;;5.90;4.57;;;;;;;;;;5998116;29;20576;-66
2023/12/06 15:25:48;;;;;;;6.77;5.30;;;;;;;;;;5998569;29;20305;-66
2023/12/06 15:28:52;;;;;;;9.27;5.63;;;;;;;;;;5998307;29;20481;-67
2023/12/06 15:32:02;;;;;;;11.87;5.70;;;;;;;;;;5998976;29;20303;-67
2023/12/06 15:35:06;;;;;;;8.53;5.33;;;;;;;;;;5996857;29;20318;-67
2023/12/06 15:38:10;;;;;;;10.40;5.53;;;;;;;;;;6034632;29;20389;-68
2023/12/06 15:41:15;;;;;;;10.63;4.90;;;;;;;;;;6034997;29;20291;-65
2023/12/06 15:44:33;;;;;;;8.23;4.93;;;;;;;;;;5997591;29;20307;-65
2023/12/06 15:47:38;;;;;;;4.17;3.87;;;;;;;;;;5997600;29;20306;-67
2023/12/06 15:50:43;;;;;;;5.37;4.70;;;;;;;;;;5997373;29;20310;-67
2023/12/06 15:53:47;;;;;;;8.17;4.27;;;;;;;;;;5997710;29;20314;-70
2023/12/06 15:56:51;;;;;;;8.10;4.33;;;;;;;;;;5998084;29;20354;-67
2023/12/06 15:59:55;;;;;;;8.50;4.50;;;;;;;;;;5997685;29;20333;-68
2023/12/06 16:03:00;;;;;;;9.00;5.20;;;;;;;;;;5997966;29;20318;-68
2023/12/06 16:06:05;;;;;;;10.97;6.13;;;;;;;;;;5997885;29;20599;-68
2023/12/06 16:09:09;;;;;;;7.27;5.27;;;;;;;;;;5997922;29;20465;-68
2023/12/06 16:12:13;;;;;;;7.63;4.87;;;;;;;;;;6017996;29;20305;-67
2023/12/06 16:15:18;;;;;;;6.17;4.80;;;;;;;;;;6019901;29;20293;-68
2023/12/06 16:18:24;;;;;;;9.07;5.83;;;;;;;;;;6019687;29;20316;-67
2023/12/06 16:21:28;;;;;;;9.23;5.13;;;;;;;;;;6019679;29;20369;-67
2023/12/06 16:24:33;;;;;;;6.47;5.73;;;;;;;;;;6019814;29;20317;-67
2023/12/06 16:27:38;;;;;;;9.87;4.80;;;;;;;;;;6019969;29;20301;-66
2023/12/06 16:30:48;;;;;;;6.40;4.77;;;;;;;;;;6020366;29;20297;-66
2023/12/06 16:33:53;;;;;;;9.37;4.73;;;;;;;;;;6018838;29;20302;-67
2023/12/06 16:36:57;;;;;;;7.97;4.93;;;;;;;;;;6019916;29;20303;-66
2023/12/06 16:40:01;;;;;;;6.67;4.83;;;;;;;;;;6019615;29;20305;-66
2023/12/06 16:43:05;;;;;;;6.43;5.50;;;;;;;;;;6018302;29;20330;-67
2023/12/06 16:46:09;;;;;;;12.73;6.50;;;;;;;;;;6020626;29;20567;-67
2023/12/06 16:49:14;;;;;;;9.23;6.10;;;;;;;;;;6024205;29;20310;-67
2023/12/06 16:52:18;;;;;;;12.43;6.27;;;;;;;;;;6024216;29;20315;-67
2023/12/06 16:55:22;;;;;;;12.17;6.37;;;;;;;;;;6023908;29;20306;-66
2023/12/06 16:58:26;;;;;;;8.13;5.70;;;;;;;;;;6023957;29;20290;-68
2023/12/06 17:01:31;;;;;;;9.93;6.23;;;;;;;;;;6024108;29;20606;-66
2023/12/06 17:04:37;;;;;;;10.77;6.33;;;;;;;;;;6023568;29;20594;-66
2023/12/06 17:07:43;;;;;;;9.07;6.23;;;;;;;;;;6023534;29;20328;-66
2023/12/06 17:10:47;;;;;;;10.13;6.00;;;;;;;;;;6014785;29;20302;-67
2023/12/06 17:13:51;;;;;;;7.90;4.83;;;;;;;;;;5999351;29;20302;-68
2023/12/06 17:16:56;;;;;;;9.03;4.73;;;;;;;;;;6008492;29;20310;-67
2023/12/06 17:20:01;;;;;;;11.97;5.10;;;;;;;;;;6000398;29;20311;-67
2023/12/06 17:23:05;;;;;;;5.87;4.63;;;;;;;;;;6000446;29;20310;-67
2023/12/06 17:26:09;;;;;;;8.03;4.77;;;;;;;;;;6014771;29;20466;-67
2023/12/06 17:29:12;;;;;;;9.47;5.17;;;;;;;;;;6012558;29;20389;-66
2023/12/06 17:32:17;;;;;;;8.10;5.10;;;;;;;;;;6001250;29;20290;-67
2023/12/06 17:35:24;;;;;;;8.77;5.53;;;;;;;;;;6014257;29;20310;-66
2023/12/06 17:38:29;;;;;;;9.87;5.93;;;;;;;;;;6021395;29;20584;-66
2023/12/06 17:41:33;;;;;;;10.83;5.40;;;;;;;;;;6023174;29;20310;-67
2023/12/06 17:44:37;;;;;;;12.73;5.67;;;;;;;;;;6022382;29;20475;-67
2023/12/06 17:47:41;;;;;;;13.37;5.17;;;;;;;;;;6035983;29;20294;-68
2023/12/06 17:50:46;;;;;;;11.83;6.20;;;;;;;;;;6023085;29;20297;-68
2023/12/06 17:53:51;;;;;;;21.40;6.23;;;;;;;;;;6021232;29;20325;-68
2023/12/06 17:56:54;;;;;;;10.53;6.60;;;;;;;;;;6022720;29;20498;-68
2023/12/06 17:59:58;;;;;;;16.33;6.27;;;;;;;;;;6021749;29;20318;-68
2023/12/06 18:03:02;;;;;;;11.90;5.10;;;;;;;;;;6022153;29;20301;-68
2023/12/06 18:06:08;;;;;;;11.43;5.93;;;;;;;;;;6022845;29;20308;-67
2023/12/06 18:09:12;;;;;;;8.70;4.53;;;;;;;;;;6022233;29;20298;-67
2023/12/06 18:12:16;;;;;;;16.03;5.47;;;;;;;;;;6001744;29;20294;-68
2023/12/06 18:15:20;;;;;;;10.20;5.27;;;;;;;;;;5999346;29;20303;-68
2023/12/06 18:18:24;;;;;;;9.60;5.67;;;;;;;;;;5999365;29;20584;-67
2023/12/06 18:21:30;;;;;;;15.63;6.37;;;;;;;;;;6000127;29;20299;-68
2023/12/06 18:24:34;;;;;;;9.17;6.30;;;;;;;;;;5999259;29;20315;-67
2023/12/06 18:27:39;;;;;;;13.43;5.20;;;;;;;;;;5999046;29;20291;-69